createdAt,value
2018-04-30T09:29:39.536Z,99332.56
2018-04-30T09:32:07.715Z,99347.95
2018-04-30T09:34:35.934Z,99356.07
2018-04-30T09:37:04.100Z,99355.19
2018-04-30T09:39:32.462Z,99346.48
2018-04-30T09:42:00.816Z,99356.22
2018-04-30T09:44:29.095Z,99354.82
2018-04-30T09:46:57.282Z,99366.70
2018-04-30T09:49:28.832Z,99357.73
2018-04-30T09:52:46.445Z,99360.18
2018-04-30T09:55:13.188Z,99360.42
2018-04-30T09:57:41.380Z,99359.95
2018-04-30T10:00:09.848Z,99354.88
2018-04-30T10:02:38.041Z,99363.78
2018-04-30T10:05:06.189Z,99371.59
2018-04-30T10:07:34.376Z,99364.31
2018-04-30T10:10:02.848Z,99356.10
2018-04-30T10:12:31.023Z,99360.09
2018-04-30T10:14:59.590Z,99373.60
2018-04-30T10:17:27.773Z,99366.22
2018-04-30T10:19:55.989Z,99351.84
2018-04-30T10:22:24.198Z,99364.59
2018-04-30T10:24:52.344Z,99360.05
2018-04-30T10:27:20.561Z,99367.73
2018-04-30T10:29:48.838Z,99367.97
2018-04-30T10:32:17.226Z,99362.45
2018-04-30T10:34:48.948Z,99370.66
2018-04-30T10:37:17.006Z,99365.06
2018-04-30T10:39:45.169Z,99368.94
2018-04-30T10:42:13.402Z,99373.89
2018-04-30T10:44:41.736Z,99372.16
2018-04-30T10:47:09.902Z,99373.05
2018-04-30T10:49:38.108Z,99378.27
2018-04-30T10:52:06.274Z,99374.84
2018-04-30T10:54:34.458Z,99379.64
2018-04-30T10:57:03.786Z,99382.92
2018-04-30T10:59:32.151Z,99375.46
2018-04-30T11:02:00.344Z,99373.67
2018-04-30T11:04:28.515Z,99377.66
2018-04-30T11:06:56.704Z,99379.34
2018-04-30T11:09:24.879Z,99381.36
2018-04-30T11:11:53.085Z,99381.88
2018-04-30T11:14:21.442Z,99376.48
2018-04-30T11:16:49.604Z,99381.83
2018-04-30T11:19:17.788Z,99384.84
2018-04-30T11:21:46.318Z,99386.98
2018-04-30T11:24:14.481Z,99386.70
2018-04-30T11:26:42.753Z,99377.92
2018-04-30T11:29:11.230Z,99371.29
2018-04-30T11:31:39.425Z,99366.82
2018-04-30T11:34:07.881Z,99359.98
2018-04-30T11:36:36.085Z,99365.50
2018-04-30T11:39:05.657Z,99356.35
2018-04-30T11:41:33.849Z,99361.14
2018-04-30T11:44:02.040Z,99361.52
2018-04-30T11:46:30.316Z,99359.64
2018-04-30T11:48:58.468Z,99356.89
2018-04-30T11:51:27.077Z,99353.59
2018-04-30T11:53:55.607Z,99348.05
2018-04-30T11:56:23.790Z,99343.28
2018-04-30T11:58:52.358Z,99341.62
2018-04-30T12:01:20.658Z,99339.63
2018-04-30T12:03:48.795Z,99343.41
2018-04-30T12:06:16.982Z,99337.08
2018-04-30T12:08:45.153Z,99339.72
2018-04-30T12:11:13.702Z,99345.47
2018-04-30T12:13:41.899Z,99339.06
2018-04-30T12:16:10.360Z,99351.78
2018-04-30T12:18:38.685Z,99354.56
2018-04-30T12:21:06.789Z,99353.16
2018-04-30T12:23:34.981Z,99340.09
2018-04-30T12:26:03.169Z,99343.38
2018-04-30T12:28:31.343Z,99341.38
2018-04-30T12:30:59.586Z,99334.67
2018-04-30T12:33:27.916Z,99342.54
2018-04-30T12:35:56.149Z,99327.73
2018-04-30T12:38:24.435Z,99334.68
2018-04-30T12:40:52.647Z,99328.59
2018-04-30T12:43:20.868Z,99335.64
2018-04-30T12:45:49.204Z,99333.39
2018-04-30T12:48:17.389Z,99332.35
2018-04-30T12:50:45.644Z,99334.09
2018-04-30T12:53:14.192Z,99327.84
2018-04-30T12:55:43.105Z,99324.23
2018-04-30T12:58:11.418Z,99320.35
2018-04-30T13:00:39.547Z,99316.25
2018-04-30T13:03:09.205Z,99308.92
2018-04-30T13:05:38.517Z,99329.11
2018-04-30T13:08:07.093Z,99355.58
2018-04-30T13:10:36.432Z,99385.55
2018-04-30T13:13:05.515Z,99376.44
2018-04-30T13:15:34.674Z,99375.98
2018-04-30T13:18:02.817Z,99370.30
2018-04-30T13:20:30.993Z,99377.42
2018-04-30T13:22:59.158Z,99367.29
2018-04-30T13:25:27.311Z,99366.59
2018-04-30T13:27:55.551Z,99363.09
2018-04-30T13:30:23.739Z,99356.13
2018-04-30T13:32:51.942Z,99369.64
2018-04-30T13:35:20.134Z,99369.06
2018-04-30T13:37:48.275Z,99373.02
2018-04-30T13:40:16.643Z,99372.57
2018-04-30T13:42:44.858Z,99367.80
2018-04-30T13:45:13.211Z,99367.28
2018-04-30T13:47:41.388Z,99380.62
2018-04-30T13:50:09.547Z,99393.09
2018-04-30T13:52:37.755Z,99372.12
2018-04-30T13:55:05.911Z,99375.31
2018-04-30T13:57:34.940Z,99373.53
2018-04-30T14:00:03.788Z,99367.00
2018-04-30T14:02:32.575Z,99369.84
2018-04-30T14:05:00.802Z,99362.41
2018-04-30T14:07:29.523Z,99364.95
2018-04-30T14:09:57.689Z,99361.51
2018-04-30T14:12:25.875Z,99347.64
2018-04-30T14:14:54.890Z,99350.34
2018-04-30T14:17:23.053Z,99340.41
2018-04-30T14:19:51.198Z,99342.77
2018-04-30T14:22:19.395Z,99346.08
2018-04-30T14:24:47.571Z,99362.64
2018-04-30T14:27:15.742Z,99373.39
2018-04-30T14:29:43.899Z,99364.23
2018-04-30T14:32:12.069Z,99370.80
2018-04-30T14:34:40.249Z,99393.50
2018-04-30T14:37:08.419Z,99395.41
2018-04-30T14:39:36.879Z,99378.98
2018-04-30T14:42:05.066Z,99407.58
2018-04-30T14:44:33.446Z,99395.93
2018-04-30T14:47:01.758Z,99435.00
2018-04-30T14:49:29.900Z,99415.45
2018-04-30T14:51:58.085Z,99399.36
2018-04-30T14:54:26.293Z,99405.08
2018-04-30T14:56:54.451Z,99404.03
2018-04-30T14:59:22.923Z,99420.77
2018-04-30T15:01:51.098Z,99438.64
2018-04-30T15:04:19.284Z,99429.41
2018-04-30T15:06:47.414Z,99442.67
2018-04-30T15:09:15.607Z,99457.43
2018-04-30T15:11:43.779Z,99433.86
2018-04-30T15:14:11.939Z,99433.56
2018-04-30T15:16:40.113Z,99416.15
2018-04-30T15:19:08.291Z,99456.41
2018-04-30T15:21:36.472Z,99414.32
2018-04-30T15:24:04.696Z,99435.20
2018-04-30T15:26:32.833Z,99440.27
2018-04-30T15:29:01.006Z,99439.93
2018-04-30T15:31:29.170Z,99456.05
2018-04-30T15:33:57.356Z,99457.97
2018-04-30T15:36:25.524Z,99449.11
2018-04-30T15:38:53.676Z,99446.97
2018-04-30T15:41:21.850Z,99434.82
2018-04-30T15:43:50.017Z,99434.69
2018-04-30T15:46:18.219Z,99443.38
2018-04-30T15:48:46.390Z,99466.20
2018-04-30T15:51:14.568Z,99451.17
2018-04-30T15:53:42.905Z,99462.52
2018-04-30T15:56:11.043Z,99468.76
2018-04-30T15:58:39.246Z,99446.16
2018-04-30T16:01:07.413Z,99444.41
2018-04-30T16:03:35.543Z,99447.10
2018-04-30T16:06:03.692Z,99438.22
2018-04-30T16:08:31.880Z,99434.30
2018-04-30T16:11:00.040Z,99431.25
2018-04-30T16:13:28.219Z,99431.99
2018-04-30T16:15:56.423Z,99448.62
2018-04-30T16:18:24.579Z,99425.30
2018-04-30T16:20:53.034Z,99413.66
2018-04-30T16:23:21.207Z,99426.33
2018-04-30T16:25:49.396Z,99418.03
2018-04-30T16:28:17.590Z,99410.31
2018-04-30T16:30:45.989Z,99410.40
2018-04-30T16:33:14.128Z,99421.73
2018-04-30T16:35:42.332Z,99428.85
2018-04-30T16:38:10.484Z,99422.61
2018-04-30T16:40:38.654Z,99433.14
2018-04-30T16:43:06.827Z,99418.23
2018-04-30T16:45:34.985Z,99424.33
2018-04-30T16:48:03.133Z,99414.84
2018-04-30T16:50:31.323Z,99416.01
2018-04-30T16:52:59.527Z,99446.88
2018-04-30T16:55:27.639Z,99408.30
2018-04-30T16:57:55.781Z,99400.23
2018-04-30T17:00:24.247Z,99449.11
2018-04-30T17:02:52.436Z,99404.63
2018-04-30T17:05:20.566Z,99422.63
2018-04-30T17:07:48.739Z,99410.70
2018-04-30T17:10:16.902Z,99402.26
2018-04-30T17:12:45.073Z,99403.27
2018-04-30T17:15:13.249Z,99399.77
2018-04-30T17:17:41.535Z,99393.72
2018-04-30T17:20:09.682Z,99408.16
2018-04-30T17:22:37.855Z,99401.88
2018-04-30T17:25:06.087Z,99421.27
2018-04-30T17:27:34.255Z,99414.74
2018-04-30T17:30:02.425Z,99406.05
2018-04-30T17:32:30.593Z,99419.94
2018-04-30T17:34:58.833Z,99416.89
2018-04-30T17:37:27.028Z,99430.06
2018-04-30T17:39:55.186Z,99421.19
2018-04-30T17:42:23.361Z,99421.41
2018-04-30T17:44:51.534Z,99422.45
2018-04-30T17:47:19.717Z,99438.62
2018-04-30T17:49:47.893Z,99438.06
2018-04-30T17:52:16.100Z,99434.72
2018-04-30T17:54:44.257Z,99440.56
2018-04-30T17:57:12.447Z,99440.06
2018-04-30T17:59:40.608Z,99435.75
2018-04-30T18:02:08.782Z,99429.19
2018-04-30T18:04:36.996Z,99427.41
2018-04-30T18:07:05.194Z,99439.56
2018-04-30T18:09:33.343Z,99435.62
2018-04-30T18:12:01.506Z,99415.75
2018-04-30T18:14:29.674Z,99427.57
2018-04-30T18:16:57.822Z,99436.36
2018-04-30T18:19:26.018Z,99445.42
2018-04-30T18:21:54.220Z,99431.95
2018-04-30T18:24:22.380Z,99433.33
2018-04-30T18:26:50.592Z,99425.83
2018-04-30T18:29:18.723Z,99418.45
2018-04-30T18:31:46.889Z,99418.42
2018-04-30T18:34:15.050Z,99413.61
2018-04-30T18:36:43.187Z,99424.20
2018-04-30T18:39:11.357Z,99427.17
2018-04-30T18:41:39.530Z,99428.10
2018-04-30T18:44:07.707Z,99425.19
2018-04-30T18:46:35.900Z,99418.45
2018-04-30T18:49:04.053Z,99434.23
2018-04-30T18:51:32.245Z,99427.83
2018-04-30T18:54:00.433Z,99420.16
2018-04-30T18:56:28.594Z,99430.37
2018-04-30T18:58:56.781Z,99433.50
2018-04-30T19:01:24.928Z,99444.40
2018-04-30T19:03:53.102Z,99425.70
2018-04-30T19:06:21.252Z,99427.74
2018-04-30T19:08:49.459Z,99425.47
2018-04-30T19:11:17.641Z,99421.73
2018-04-30T19:13:45.790Z,99427.55
2018-04-30T19:16:13.975Z,99424.78
2018-04-30T19:18:42.161Z,99425.14
2018-04-30T19:21:10.381Z,99412.35
2018-04-30T19:23:38.480Z,99423.32
2018-04-30T19:26:06.672Z,99417.77
2018-04-30T19:28:34.803Z,99412.94
2018-04-30T19:31:02.983Z,99425.93
2018-04-30T19:33:31.151Z,99412.97
2018-04-30T19:35:59.306Z,99407.75
2018-04-30T19:38:27.464Z,99424.30
2018-04-30T19:40:55.802Z,99421.41
2018-04-30T19:43:24.004Z,99412.36
2018-04-30T19:45:52.181Z,99417.80
2018-04-30T19:48:20.662Z,99421.48
2018-04-30T19:50:48.817Z,99414.05
2018-04-30T19:53:16.958Z,99426.52
2018-04-30T19:55:45.156Z,99423.58
2018-04-30T19:58:13.319Z,99417.65
2018-04-30T20:00:41.483Z,99411.02
2018-04-30T20:03:10.018Z,99413.59
2018-04-30T20:05:38.208Z,99409.05
2018-04-30T20:08:06.349Z,99410.39
2018-04-30T20:10:34.526Z,99408.88
2018-04-30T20:13:02.670Z,99402.42
2018-04-30T20:15:30.963Z,99407.00
2018-04-30T20:17:59.150Z,99386.69
2018-04-30T20:20:27.337Z,99406.48
2018-04-30T20:22:55.485Z,99397.76
2018-04-30T20:25:23.643Z,99399.20
2018-04-30T20:27:51.830Z,99402.53
2018-04-30T20:30:20.018Z,99387.69
2018-04-30T20:32:48.999Z,99394.95
2018-04-30T20:35:17.172Z,99394.80
2018-04-30T20:37:45.363Z,99396.67
2018-04-30T20:40:13.631Z,99392.81
2018-04-30T20:42:41.781Z,99394.88
2018-04-30T20:45:09.984Z,99389.11
2018-04-30T20:47:38.168Z,99391.33
2018-04-30T20:50:06.303Z,99382.73
2018-04-30T20:52:34.492Z,99381.36
2018-04-30T20:55:02.677Z,99376.28
2018-04-30T20:57:30.836Z,99387.52
2018-04-30T20:59:59.014Z,99376.66
2018-04-30T21:02:27.173Z,99386.58
2018-04-30T21:04:55.346Z,99375.59
2018-04-30T21:07:23.497Z,99381.06
2018-04-30T21:09:52.459Z,99376.31
2018-04-30T21:12:20.625Z,99372.89
2018-04-30T21:14:48.769Z,99367.07
2018-04-30T21:17:17.008Z,99384.83
2018-04-30T21:19:45.138Z,99379.33
2018-04-30T21:22:13.299Z,99374.63
2018-04-30T21:24:41.502Z,99383.92
2018-04-30T21:27:09.657Z,99373.73
2018-04-30T21:29:38.199Z,99363.55
2018-04-30T21:32:06.362Z,99374.84
2018-04-30T21:34:34.634Z,99374.30
2018-04-30T21:37:02.735Z,99373.16
2018-04-30T21:39:30.884Z,99378.79
2018-04-30T21:41:59.071Z,99367.75
2018-04-30T21:44:27.263Z,99378.38
2018-04-30T21:46:55.445Z,99376.16
2018-04-30T21:49:23.590Z,99392.64
2018-04-30T21:51:51.763Z,99377.37
2018-04-30T21:54:19.943Z,99368.94
2018-04-30T21:56:48.247Z,99378.16
2018-04-30T21:59:16.428Z,99375.81
2018-04-30T22:01:44.591Z,99376.80
2018-04-30T22:04:12.764Z,99367.89
2018-04-30T22:06:40.952Z,99373.16
2018-04-30T22:09:09.111Z,99369.64
2018-04-30T22:11:37.299Z,99373.90
2018-04-30T22:14:05.486Z,99378.42
2018-04-30T22:16:33.630Z,99367.38
2018-04-30T22:19:01.816Z,99369.83
2018-04-30T22:21:29.976Z,99377.95
2018-04-30T22:23:58.137Z,99403.48
2018-04-30T22:26:26.344Z,99377.80
2018-04-30T22:28:54.493Z,99369.59
2018-04-30T22:31:22.651Z,99376.64
2018-04-30T22:33:50.845Z,99377.06
2018-04-30T22:36:19.006Z,99377.98
2018-04-30T22:38:47.215Z,99374.91
2018-04-30T22:41:15.413Z,99375.80
2018-04-30T22:43:43.571Z,99383.91
2018-04-30T22:46:11.790Z,99405.56
2018-04-30T22:48:39.956Z,99365.17
2018-04-30T22:51:08.110Z,99377.89
2018-04-30T22:53:36.267Z,99366.25
2018-04-30T22:56:04.454Z,99380.21
2018-04-30T22:58:32.632Z,99382.41
2018-04-30T23:01:00.810Z,99384.20
2018-04-30T23:03:28.970Z,99382.42
2018-04-30T23:05:57.130Z,99389.59
2018-04-30T23:08:25.297Z,99391.81
2018-04-30T23:10:53.464Z,99398.20
2018-04-30T23:13:21.651Z,99394.16
2018-04-30T23:15:49.810Z,99398.28
2018-04-30T23:18:17.963Z,99404.84
2018-04-30T23:20:46.137Z,99403.12
2018-04-30T23:23:14.637Z,99436.77
2018-04-30T23:25:42.745Z,99415.60
2018-04-30T23:28:10.921Z,99420.13
2018-04-30T23:30:39.092Z,99399.61
2018-04-30T23:33:07.236Z,99419.60
2018-04-30T23:35:35.410Z,99413.77
2018-04-30T23:38:03.555Z,99425.77
2018-04-30T23:40:31.725Z,99418.11
2018-04-30T23:42:59.906Z,99420.65
2018-04-30T23:45:28.071Z,99419.58
2018-04-30T23:47:56.225Z,99430.60
2018-04-30T23:50:24.396Z,99442.87
2018-04-30T23:52:52.568Z,99444.09
2018-04-30T23:55:20.696Z,99446.27
2018-04-30T23:57:48.865Z,99439.60
